createdAt,value
2023-03-13T00:00:17.342Z,6.70
2023-03-13T00:01:17.334Z,6.71
2023-03-13T00:02:17.466Z,6.72
2023-03-13T00:03:17.316Z,6.72
2023-03-13T00:04:17.296Z,6.72
2023-03-13T00:05:17.340Z,6.71
2023-03-13T00:06:17.323Z,6.70
2023-03-13T00:07:17.250Z,6.68
2023-03-13T00:08:17.273Z,6.70
2023-03-13T00:09:17.236Z,6.71
2023-03-13T00:10:17.222Z,6.75
2023-03-13T00:11:17.211Z,6.77
2023-03-13T00:12:17.178Z,6.78
2023-03-13T00:13:17.186Z,6.82
2023-03-13T00:14:17.152Z,6.82
2023-03-13T00:15:17.167Z,6.82
2023-03-13T00:16:17.126Z,6.82
2023-03-13T00:17:17.129Z,6.85
2023-03-13T00:18:17.214Z,6.83
2023-03-13T00:19:17.100Z,6.83
2023-03-13T00:20:17.698Z,6.83
2023-03-13T00:21:17.763Z,6.85
2023-03-13T00:22:17.052Z,6.86
2023-03-13T00:23:17.057Z,6.85
2023-03-13T00:24:17.018Z,6.86
2023-03-13T00:25:17.018Z,6.87
2023-03-13T00:26:17.005Z,6.89
2023-03-13T00:27:16.987Z,6.87
2023-03-13T00:28:16.966Z,6.89
2023-03-13T00:29:16.989Z,6.89
2023-03-13T00:30:16.946Z,6.90
2023-03-13T00:31:17.852Z,6.89
2023-03-13T00:32:17.318Z,6.89
2023-03-13T00:33:16.907Z,6.89
2023-03-13T00:34:16.918Z,6.90
2023-03-13T00:35:17.036Z,6.89
2023-03-13T00:36:16.887Z,6.86
2023-03-13T00:37:17.315Z,6.86
2023-03-13T00:38:16.835Z,6.86
2023-03-13T00:39:16.969Z,6.86
2023-03-13T00:40:17.033Z,6.87
2023-03-13T00:41:16.856Z,6.89
2023-03-13T00:42:16.951Z,6.90
2023-03-13T00:43:17.235Z,6.92
2023-03-13T00:44:17.086Z,6.92
2023-03-13T00:45:16.833Z,6.93
2023-03-13T00:46:16.830Z,6.96
2023-03-13T00:47:16.787Z,6.95
2023-03-13T00:48:16.715Z,6.96
2023-03-13T00:49:16.760Z,6.96
2023-03-13T00:50:16.766Z,6.97
2023-03-13T00:51:16.991Z,7.01
2023-03-13T00:52:16.756Z,7.03
2023-03-13T00:53:16.847Z,7.03
2023-03-13T00:54:16.915Z,7.04
2023-03-13T00:55:16.616Z,7.05
2023-03-13T00:56:16.703Z,7.05
2023-03-13T00:57:16.593Z,7.05
2023-03-13T00:58:16.575Z,7.07
2023-03-13T00:59:16.574Z,7.08
2023-03-13T01:00:16.559Z,7.08
2023-03-13T01:01:16.636Z,7.08
2023-03-13T01:02:16.743Z,7.10
2023-03-13T01:03:16.737Z,7.10
2023-03-13T01:04:16.526Z,7.10
2023-03-13T01:05:17.204Z,7.08
2023-03-13T01:06:16.598Z,7.08
2023-03-13T01:07:16.489Z,7.08
2023-03-13T01:08:16.449Z,7.08
2023-03-13T01:09:16.500Z,7.08
2023-03-13T01:10:16.507Z,7.08
2023-03-13T01:11:16.411Z,7.13
2023-03-13T01:12:16.413Z,7.10
2023-03-13T01:13:16.423Z,7.13
2023-03-13T01:14:16.393Z,7.11
2023-03-13T01:15:16.364Z,7.11
2023-03-13T01:16:16.601Z,7.14
2023-03-13T01:17:16.330Z,7.14
2023-03-13T01:18:16.323Z,7.15
2023-03-13T01:19:16.322Z,7.18
2023-03-13T01:20:16.301Z,7.15
2023-03-13T01:21:16.301Z,7.19
2023-03-13T01:22:16.291Z,7.19
2023-03-13T01:23:16.263Z,7.22
2023-03-13T01:24:16.274Z,7.22
2023-03-13T01:25:16.243Z,7.23
2023-03-13T01:26:16.250Z,7.25
2023-03-13T01:27:16.208Z,7.25
2023-03-13T01:28:16.202Z,7.26
2023-03-13T01:29:16.194Z,7.26
2023-03-13T01:30:16.174Z,7.28
2023-03-13T01:31:16.286Z,7.29
2023-03-13T01:32:16.158Z,7.31
2023-03-13T01:33:16.123Z,7.32
2023-03-13T01:34:16.132Z,7.33
2023-03-13T01:35:16.096Z,7.33
2023-03-13T01:36:16.161Z,7.36
2023-03-13T01:37:16.076Z,7.37
2023-03-13T01:38:16.055Z,7.39
2023-03-13T01:39:16.087Z,7.39
2023-03-13T01:40:16.051Z,7.40
2023-03-13T01:41:16.015Z,7.40
2023-03-13T01:42:16.009Z,7.40
2023-03-13T01:43:26.188Z,7.40
2023-03-13T01:44:16.996Z,7.41
2023-03-13T01:45:15.964Z,7.43
2023-03-13T01:46:16.012Z,7.43
2023-03-13T01:47:15.935Z,7.44
2023-03-13T01:48:15.924Z,7.46
2023-03-13T01:49:15.934Z,7.46
2023-03-13T01:50:15.899Z,7.46
2023-03-13T01:51:15.894Z,7.46
2023-03-13T01:52:15.878Z,7.44
2023-03-13T01:53:15.857Z,7.47
2023-03-13T01:54:15.864Z,7.47
2023-03-13T01:55:15.824Z,7.44
2023-03-13T01:56:15.814Z,7.46
2023-03-13T01:57:15.805Z,7.44
2023-03-13T01:58:15.795Z,7.44
2023-03-13T01:59:15.809Z,7.47
2023-03-13T02:00:15.776Z,7.47
2023-03-13T02:01:15.796Z,7.46
2023-03-13T02:02:15.735Z,7.47
2023-03-13T02:03:15.755Z,7.47
2023-03-13T02:04:15.706Z,7.47
2023-03-13T02:05:15.705Z,7.46
2023-03-13T02:06:15.675Z,7.47
2023-03-13T02:07:15.673Z,7.48
2023-03-13T02:08:15.659Z,7.48
2023-03-13T02:09:15.668Z,7.46
2023-03-13T02:10:15.649Z,7.46
2023-03-13T02:11:15.619Z,7.48
2023-03-13T02:12:15.605Z,7.46
2023-03-13T02:13:15.587Z,7.47
2023-03-13T02:14:15.815Z,7.46
2023-03-13T02:15:15.586Z,7.48
2023-03-13T02:16:15.576Z,7.48
2023-03-13T02:17:15.542Z,7.48
2023-03-13T02:18:15.514Z,7.48
2023-03-13T02:19:15.505Z,7.48
2023-03-13T02:20:15.505Z,7.50
2023-03-13T02:21:15.474Z,7.50
2023-03-13T02:22:15.464Z,7.50
2023-03-13T02:23:15.454Z,7.51
2023-03-13T02:24:15.438Z,7.51
2023-03-13T02:25:15.445Z,7.51
2023-03-13T02:26:15.404Z,7.53
2023-03-13T02:27:15.415Z,7.51
2023-03-13T02:28:15.386Z,7.51
2023-03-13T02:29:15.374Z,7.51
2023-03-13T02:30:15.379Z,7.53
2023-03-13T02:31:15.376Z,7.55
2023-03-13T02:32:15.327Z,7.55
2023-03-13T02:33:15.328Z,7.56
2023-03-13T02:34:15.326Z,7.55
2023-03-13T02:35:15.306Z,7.56
2023-03-13T02:36:15.275Z,7.55
2023-03-13T02:37:15.265Z,7.55
2023-03-13T02:38:15.258Z,7.55
2023-03-13T02:39:15.265Z,7.55
2023-03-13T02:40:15.252Z,7.56
2023-03-13T02:41:15.222Z,7.58
2023-03-13T02:42:15.193Z,7.56
2023-03-13T02:43:15.184Z,7.56
2023-03-13T02:44:15.175Z,7.58
2023-03-13T02:45:15.175Z,7.58
2023-03-13T02:46:15.188Z,7.58
2023-03-13T02:47:15.136Z,7.58
2023-03-13T02:48:15.117Z,7.59
2023-03-13T02:49:15.108Z,7.59
2023-03-13T02:50:15.110Z,7.59
2023-03-13T02:51:15.086Z,7.59
2023-03-13T02:52:15.072Z,7.58
2023-03-13T02:53:15.061Z,7.58
2023-03-13T02:54:15.042Z,7.58
2023-03-13T02:55:15.049Z,7.56
2023-03-13T02:56:15.078Z,7.58
2023-03-13T02:57:15.011Z,7.56
2023-03-13T02:58:14.983Z,7.58
2023-03-13T02:59:14.980Z,7.58
2023-03-13T03:00:14.990Z,7.58
2023-03-13T03:01:15.041Z,7.59
2023-03-13T03:02:14.945Z,7.58
2023-03-13T03:03:14.944Z,7.56
2023-03-13T03:04:14.967Z,7.58
2023-03-13T03:05:14.891Z,7.58
2023-03-13T03:06:14.895Z,7.59
2023-03-13T03:07:14.872Z,7.61
2023-03-13T03:08:14.854Z,7.59
2023-03-13T03:09:14.839Z,7.61
2023-03-13T03:10:14.849Z,7.62
2023-03-13T03:11:14.841Z,7.61
2023-03-13T03:12:14.812Z,7.62
2023-03-13T03:13:14.792Z,7.62
2023-03-13T03:14:14.769Z,7.62
2023-03-13T03:15:14.781Z,7.62
2023-03-13T03:16:14.795Z,7.62
2023-03-13T03:17:14.793Z,7.64
2023-03-13T03:18:14.725Z,7.64
2023-03-13T03:19:14.714Z,7.64
2023-03-13T03:20:14.689Z,7.66
2023-03-13T03:21:14.708Z,7.66
2023-03-13T03:22:14.687Z,7.67
2023-03-13T03:23:14.667Z,7.69
2023-03-13T03:24:14.637Z,7.69
2023-03-13T03:25:14.630Z,7.70
2023-03-13T03:26:14.633Z,7.70
2023-03-13T03:27:14.597Z,7.72
2023-03-13T03:28:14.589Z,7.75
2023-03-13T03:29:14.579Z,7.77
2023-03-13T03:30:14.564Z,7.77
2023-03-13T03:31:14.607Z,7.77
2023-03-13T03:32:14.524Z,7.78
2023-03-13T03:33:14.516Z,7.80
2023-03-13T03:34:14.508Z,7.78
2023-03-13T03:35:14.499Z,7.80
2023-03-13T03:36:14.583Z,7.80
2023-03-13T03:37:14.484Z,7.81
2023-03-13T03:38:14.444Z,7.83
2023-03-13T03:39:14.433Z,7.84
2023-03-13T03:40:14.423Z,7.87
2023-03-13T03:41:14.438Z,7.90
2023-03-13T03:42:14.392Z,7.91
2023-03-13T03:43:14.384Z,7.95
2023-03-13T03:44:14.369Z,7.95
2023-03-13T03:45:14.359Z,7.98
2023-03-13T03:46:14.436Z,7.99
2023-03-13T03:47:14.466Z,7.99
2023-03-13T03:48:14.312Z,8.02
2023-03-13T03:49:14.298Z,8.05
2023-03-13T03:50:14.282Z,8.06
2023-03-13T03:51:14.293Z,8.11
2023-03-13T03:52:14.262Z,8.14
2023-03-13T03:53:14.244Z,8.14
2023-03-13T03:54:14.223Z,8.17
2023-03-13T03:55:14.215Z,8.16
2023-03-13T03:56:14.224Z,8.17
2023-03-13T03:57:14.194Z,8.20
2023-03-13T03:58:14.175Z,8.20
2023-03-13T03:59:14.167Z,8.21
2023-03-13T04:00:14.166Z,8.21
2023-03-13T04:01:14.150Z,8.23
2023-03-13T04:02:14.213Z,8.21
2023-03-13T04:03:14.172Z,8.24
2023-03-13T04:04:14.098Z,8.26
2023-03-13T04:05:14.095Z,8.26
2023-03-13T04:06:14.092Z,8.27
2023-03-13T04:07:14.058Z,8.28
2023-03-13T04:08:14.050Z,8.27
2023-03-13T04:09:14.038Z,8.31
2023-03-13T04:10:14.054Z,8.31
2023-03-13T04:11:14.039Z,8.35
2023-03-13T04:12:13.988Z,8.35
2023-03-13T04:13:13.990Z,8.35
2023-03-13T04:14:13.971Z,8.35
2023-03-13T04:15:13.951Z,8.36
2023-03-13T04:16:13.976Z,8.38
2023-03-13T04:17:13.989Z,8.39
2023-03-13T04:18:13.911Z,8.41
2023-03-13T04:19:13.899Z,8.42
2023-03-13T04:20:13.884Z,8.42
2023-03-13T04:21:13.891Z,8.42
2023-03-13T04:22:13.870Z,8.42
2023-03-13T04:23:13.845Z,8.42
2023-03-13T04:24:13.830Z,8.42
2023-03-13T04:25:13.819Z,8.44
2023-03-13T04:26:13.821Z,8.44
2023-03-13T04:27:13.790Z,8.44
2023-03-13T04:28:13.803Z,8.45
2023-03-13T04:29:13.759Z,8.45
2023-03-13T04:30:13.759Z,8.46
2023-03-13T04:31:13.840Z,8.45
2023-03-13T04:32:13.722Z,8.50
2023-03-13T04:33:13.721Z,8.49
2023-03-13T04:34:13.692Z,8.50
2023-03-13T04:35:13.800Z,8.52
2023-03-13T04:36:13.738Z,8.52
2023-03-13T04:37:13.662Z,8.54
2023-03-13T04:38:13.644Z,8.54
2023-03-13T04:39:13.645Z,8.53
2023-03-13T04:40:13.614Z,8.54
2023-03-13T04:41:13.605Z,8.57
2023-03-13T04:42:13.612Z,8.57
2023-03-13T04:43:13.570Z,8.59
2023-03-13T04:44:13.559Z,8.59
2023-03-13T04:45:13.551Z,8.59
2023-03-13T04:46:13.566Z,8.60
2023-03-13T04:47:13.541Z,8.59
2023-03-13T04:48:13.503Z,8.60
2023-03-13T04:49:13.491Z,8.60
2023-03-13T04:50:13.493Z,8.61
2023-03-13T04:51:13.500Z,8.61
2023-03-13T04:52:13.469Z,8.60
2023-03-13T04:53:13.439Z,8.60
2023-03-13T04:54:13.419Z,8.60
2023-03-13T04:55:13.410Z,8.60
2023-03-13T04:56:13.398Z,8.60
2023-03-13T04:57:13.399Z,8.59
2023-03-13T04:58:13.370Z,8.60
2023-03-13T04:59:13.359Z,8.60
2023-03-13T05:00:13.339Z,8.61
2023-03-13T05:01:13.382Z,8.64
2023-03-13T05:02:13.339Z,8.64
2023-03-13T05:03:13.302Z,8.66
2023-03-13T05:04:13.293Z,8.66
2023-03-13T05:05:13.351Z,8.66
2023-03-13T05:06:13.261Z,8.64
2023-03-13T05:07:13.291Z,8.68
2023-03-13T05:08:13.248Z,8.66
2023-03-13T05:09:13.263Z,8.66
2023-03-13T05:10:13.211Z,8.68
2023-03-13T05:11:13.218Z,8.66
2023-03-13T05:12:13.199Z,8.66
2023-03-13T05:13:13.181Z,8.66
2023-03-13T05:14:13.179Z,8.68
2023-03-13T05:15:13.162Z,8.68
2023-03-13T05:16:13.177Z,8.68
2023-03-13T05:17:13.131Z,8.68
2023-03-13T05:18:13.110Z,8.69
2023-03-13T05:19:13.092Z,8.66
2023-03-13T05:20:13.088Z,8.68
2023-03-13T05:21:13.061Z,8.66
2023-03-13T05:22:13.080Z,8.69
2023-03-13T05:23:13.049Z,8.71
2023-03-13T05:24:13.021Z,8.71
2023-03-13T05:25:13.010Z,8.72
2023-03-13T05:26:13.027Z,8.72
2023-03-13T05:27:13.004Z,8.72
2023-03-13T05:28:12.984Z,8.71
2023-03-13T05:29:12.966Z,8.74
2023-03-13T05:30:12.946Z,8.74
2023-03-13T05:31:13.028Z,8.75
2023-03-13T05:32:12.933Z,8.77
2023-03-13T05:33:12.906Z,8.72
2023-03-13T05:34:12.933Z,8.74
2023-03-13T05:35:12.873Z,8.75
2023-03-13T05:36:12.934Z,8.72
2023-03-13T05:37:12.843Z,8.72
2023-03-13T05:38:12.849Z,8.74
2023-03-13T05:39:12.823Z,8.74
2023-03-13T05:40:12.815Z,8.75
2023-03-13T05:41:12.791Z,8.75
2023-03-13T05:42:12.817Z,8.75
2023-03-13T05:43:12.771Z,8.75
2023-03-13T05:44:12.774Z,8.77
2023-03-13T05:45:12.739Z,8.77
2023-03-13T05:46:12.786Z,8.78
2023-03-13T05:47:12.741Z,8.77
2023-03-13T05:48:12.691Z,8.82
2023-03-13T05:49:12.698Z,8.86
2023-03-13T05:50:12.695Z,8.87
2023-03-13T05:51:12.660Z,8.89
2023-03-13T05:52:12.660Z,8.89
2023-03-13T05:53:12.651Z,8.89
2023-03-13T05:54:15.296Z,8.90
2023-03-13T05:55:12.610Z,8.90
2023-03-13T05:56:12.588Z,8.90
2023-03-13T05:57:12.598Z,8.90
2023-03-13T05:58:12.567Z,8.92
2023-03-13T05:59:12.553Z,8.90
2023-03-13T06:00:12.537Z,8.92
2023-03-13T06:01:12.525Z,8.92
2023-03-13T06:02:12.536Z,8.93
2023-03-13T06:03:14.297Z,8.92
2023-03-13T06:04:12.631Z,8.95
2023-03-13T06:05:12.465Z,8.97
2023-03-13T06:06:12.458Z,8.99
2023-03-13T06:07:12.455Z,8.99
2023-03-13T06:08:12.422Z,9.13
2023-03-13T06:09:12.415Z,9.31
2023-03-13T06:10:12.423Z,9.59
2023-03-13T06:11:12.382Z,9.84
2023-03-13T06:12:12.397Z,9.85
2023-03-13T06:13:19.671Z,9.84
2023-03-13T06:14:13.367Z,9.80
2023-03-13T06:15:12.523Z,9.70
2023-03-13T06:16:12.382Z,9.81
2023-03-13T06:17:12.301Z,9.99
2023-03-13T06:18:12.317Z,10.15
2023-03-13T06:19:12.264Z,10.27
2023-03-13T06:20:12.253Z,10.39
2023-03-13T06:21:12.270Z,10.42
2023-03-13T06:22:12.243Z,10.42
2023-03-13T06:23:12.283Z,10.34
2023-03-13T06:24:12.215Z,10.28
2023-03-13T06:25:12.312Z,10.25
2023-03-13T06:26:12.194Z,10.21
2023-03-13T06:27:12.220Z,10.23
2023-03-13T06:28:12.184Z,10.23
2023-03-13T06:29:12.166Z,10.25
2023-03-13T06:30:12.142Z,10.28
2023-03-13T06:31:12.134Z,10.34
2023-03-13T06:32:12.229Z,10.43
2023-03-13T06:33:12.169Z,10.49
2023-03-13T06:34:12.116Z,10.49
2023-03-13T06:35:12.076Z,10.53
2023-03-13T06:36:12.149Z,10.51
2023-03-13T06:37:12.050Z,10.55
2023-03-13T06:38:12.054Z,10.53
2023-03-13T06:39:14.016Z,10.51
2023-03-13T06:40:12.022Z,10.57
2023-03-13T06:41:12.004Z,10.62
2023-03-13T06:42:11.985Z,10.68
2023-03-13T06:43:11.989Z,10.69
2023-03-13T06:44:11.966Z,10.76
2023-03-13T06:45:11.945Z,10.80
2023-03-13T06:46:13.424Z,10.84
2023-03-13T06:47:14.380Z,10.97
2023-03-13T06:48:12.583Z,11.01
2023-03-13T06:49:11.885Z,11.04
2023-03-13T06:50:11.886Z,11.08
2023-03-13T06:51:11.874Z,11.12
2023-03-13T06:52:11.859Z,11.13
2023-03-13T06:53:11.855Z,11.18
2023-03-13T06:54:12.385Z,11.16
2023-03-13T06:55:12.098Z,11.22
2023-03-13T06:56:11.806Z,11.26
2023-03-13T06:57:15.005Z,11.31
2023-03-13T06:58:21.764Z,11.38
2023-03-13T06:59:12.756Z,11.52
2023-03-13T07:00:11.744Z,11.59
2023-03-13T07:01:11.815Z,11.62
2023-03-13T07:02:11.747Z,11.63
2023-03-13T07:03:11.716Z,11.68
2023-03-13T07:04:11.712Z,11.74
2023-03-13T07:05:11.680Z,11.85
2023-03-13T07:06:11.684Z,11.95
2023-03-13T07:07:22.149Z,11.99
2023-03-13T07:08:12.670Z,12.03
2023-03-13T07:09:11.641Z,12.08
2023-03-13T07:10:11.638Z,12.11
2023-03-13T07:11:11.595Z,12.11
2023-03-13T07:12:11.630Z,12.11
2023-03-13T07:13:11.591Z,12.14
2023-03-13T07:14:16.858Z,12.15
2023-03-13T07:15:12.560Z,12.17
2023-03-13T07:16:11.597Z,12.21
2023-03-13T07:17:11.538Z,12.23
2023-03-13T07:18:11.593Z,12.26
2023-03-13T07:19:11.503Z,12.25
2023-03-13T07:20:11.526Z,12.28
2023-03-13T07:21:11.486Z,12.29
2023-03-13T07:22:11.464Z,12.30
2023-03-13T07:23:11.452Z,12.33
2023-03-13T07:24:11.486Z,12.36
2023-03-13T07:25:11.437Z,12.36
2023-03-13T07:26:11.699Z,12.37
2023-03-13T07:27:11.443Z,12.33
2023-03-13T07:28:11.408Z,12.32
2023-03-13T07:29:11.375Z,12.29
2023-03-13T07:30:11.376Z,12.28
2023-03-13T07:31:11.377Z,12.28
2023-03-13T07:32:11.376Z,12.26
2023-03-13T07:33:11.333Z,12.23
2023-03-13T07:34:11.299Z,12.21
2023-03-13T07:35:11.295Z,12.23
2023-03-13T07:36:11.378Z,12.30
2023-03-13T07:37:11.266Z,12.33
2023-03-13T07:38:11.294Z,12.36
2023-03-13T07:39:11.225Z,12.39
2023-03-13T07:40:11.225Z,12.45
2023-03-13T07:41:11.204Z,12.50
2023-03-13T07:42:11.258Z,12.54
2023-03-13T07:43:11.174Z,12.54
2023-03-13T07:44:11.176Z,12.54
2023-03-13T07:45:11.154Z,12.53
2023-03-13T07:46:11.736Z,12.48
2023-03-13T07:47:11.572Z,12.44
2023-03-13T07:48:11.469Z,12.40
2023-03-13T07:49:11.097Z,12.36
2023-03-13T07:50:11.209Z,12.32
2023-03-13T07:51:11.064Z,12.29
2023-03-13T07:52:11.634Z,12.29
2023-03-13T07:53:14.173Z,12.28
2023-03-13T07:54:11.755Z,12.26
2023-03-13T07:55:11.025Z,12.25
2023-03-13T07:56:11.368Z,12.23
2023-03-13T07:57:11.000Z,12.29
2023-03-13T07:58:11.356Z,12.33
2023-03-13T07:59:11.580Z,12.39
2023-03-13T08:00:10.964Z,12.43
2023-03-13T08:01:11.197Z,12.44
2023-03-13T08:02:11.072Z,12.45
2023-03-13T08:03:11.192Z,12.47
2023-03-13T08:04:11.360Z,12.47
2023-03-13T08:05:10.913Z,12.47
2023-03-13T08:06:10.886Z,12.45
2023-03-13T08:07:10.855Z,12.45
2023-03-13T08:08:10.887Z,12.45
2023-03-13T08:09:11.308Z,12.37
2023-03-13T08:10:10.829Z,12.40
2023-03-13T08:11:10.819Z,12.40
2023-03-13T08:12:10.810Z,12.40
2023-03-13T08:13:10.797Z,12.43
2023-03-13T08:14:11.063Z,12.44
2023-03-13T08:15:11.026Z,12.45
2023-03-13T08:16:11.461Z,12.50
2023-03-13T08:17:10.723Z,12.55
2023-03-13T08:18:10.742Z,12.57
2023-03-13T08:19:10.734Z,12.58
2023-03-13T08:20:10.692Z,12.61
2023-03-13T08:21:10.665Z,12.62
2023-03-13T08:22:10.799Z,12.61
2023-03-13T08:23:10.642Z,12.63
2023-03-13T08:24:10.685Z,12.62
2023-03-13T08:25:10.609Z,12.61
2023-03-13T08:26:10.602Z,12.58
2023-03-13T08:27:10.589Z,12.55
2023-03-13T08:28:11.386Z,12.54
2023-03-13T08:29:10.577Z,12.53
2023-03-13T08:30:10.549Z,12.53
2023-03-13T08:31:10.581Z,12.51
2023-03-13T08:32:10.530Z,12.53
2023-03-13T08:33:10.499Z,12.55
2023-03-13T08:34:10.500Z,12.58
2023-03-13T08:35:10.502Z,12.61
2023-03-13T08:36:10.470Z,12.63
2023-03-13T08:37:10.460Z,12.66
2023-03-13T08:38:10.446Z,12.66
2023-03-13T08:39:10.420Z,12.66
2023-03-13T08:40:10.451Z,12.69
2023-03-13T08:41:10.399Z,12.70
2023-03-13T08:42:10.402Z,12.73
2023-03-13T08:43:10.406Z,12.76
2023-03-13T08:44:10.397Z,12.78
2023-03-13T08:45:10.338Z,12.80
2023-03-13T08:46:10.399Z,12.80
2023-03-13T08:47:10.322Z,12.81
2023-03-13T08:48:10.316Z,12.81
2023-03-13T08:49:10.330Z,12.84
2023-03-13T08:50:10.298Z,12.88
2023-03-13T08:51:10.268Z,12.91
2023-03-13T08:52:10.322Z,12.91
2023-03-13T08:53:10.276Z,12.93
2023-03-13T08:54:10.251Z,12.91
2023-03-13T08:55:11.243Z,12.91
2023-03-13T08:56:10.219Z,12.91
2023-03-13T08:57:10.446Z,12.91
2023-03-13T08:58:10.196Z,12.93
2023-03-13T08:59:10.221Z,12.93
2023-03-13T09:00:10.200Z,12.93
2023-03-13T09:01:10.153Z,12.90
2023-03-13T09:02:10.225Z,12.91
2023-03-13T09:03:10.165Z,12.88
2023-03-13T09:04:10.195Z,12.88
2023-03-13T09:05:10.117Z,12.88
2023-03-13T09:06:10.075Z,12.88
2023-03-13T09:07:10.120Z,12.91
2023-03-13T09:08:12.283Z,12.91
2023-03-13T09:09:14.195Z,12.93
2023-03-13T09:10:10.282Z,12.94
2023-03-13T09:11:10.030Z,12.94
2023-03-13T09:12:24.550Z,12.95
2023-03-13T09:13:10.991Z,12.99
2023-03-13T09:14:10.041Z,13.01
2023-03-13T09:15:09.971Z,13.02
2023-03-13T09:16:09.999Z,13.06
2023-03-13T09:17:09.932Z,13.08
2023-03-13T09:18:09.970Z,13.09
2023-03-13T09:19:09.929Z,13.08
2023-03-13T09:20:09.910Z,13.06
2023-03-13T09:21:09.923Z,13.09
2023-03-13T09:22:09.878Z,13.08
2023-03-13T09:23:09.856Z,13.06
2023-03-13T09:24:12.825Z,13.02
2023-03-13T09:25:09.851Z,13.02
2023-03-13T09:26:09.874Z,12.98
2023-03-13T09:27:09.811Z,12.95
2023-03-13T09:28:09.803Z,12.94
2023-03-13T09:29:09.791Z,12.94
2023-03-13T09:30:09.760Z,12.91
2023-03-13T09:31:09.795Z,12.88
2023-03-13T09:32:12.227Z,12.86
2023-03-13T09:33:09.730Z,12.80
2023-03-13T09:34:09.749Z,12.73
2023-03-13T09:35:09.699Z,12.72
2023-03-13T09:36:09.762Z,12.68
2023-03-13T09:37:09.681Z,12.66
2023-03-13T09:38:09.648Z,12.62
2023-03-13T09:39:09.913Z,12.62
2023-03-13T09:40:09.628Z,12.62
2023-03-13T09:41:09.619Z,12.63
2023-03-13T09:42:09.598Z,12.63
2023-03-13T09:43:09.597Z,12.63
2023-03-13T09:44:09.919Z,12.61
2023-03-13T09:45:09.563Z,12.62
2023-03-13T09:46:09.675Z,12.63
2023-03-13T09:47:09.540Z,12.65
2023-03-13T09:48:09.527Z,12.70
2023-03-13T09:49:09.512Z,12.78
2023-03-13T09:50:09.519Z,12.83
2023-03-13T09:51:09.492Z,12.90
2023-03-13T09:52:09.477Z,12.95
2023-03-13T09:53:09.460Z,13.02
2023-03-13T09:54:09.498Z,13.06
2023-03-13T09:55:09.589Z,13.09
2023-03-13T09:56:09.409Z,13.11
2023-03-13T09:57:09.409Z,13.12
2023-03-13T09:58:09.394Z,13.12
2023-03-13T09:59:10.787Z,13.17
2023-03-13T10:00:09.365Z,13.16
2023-03-13T10:01:09.444Z,13.12
2023-03-13T10:02:09.326Z,13.08
2023-03-13T10:03:09.318Z,13.08
2023-03-13T10:04:09.371Z,13.06
2023-03-13T10:05:09.325Z,13.05
2023-03-13T10:06:09.282Z,13.05
2023-03-13T10:07:09.274Z,13.06
2023-03-13T10:08:09.256Z,13.05
2023-03-13T10:09:09.239Z,13.03
2023-03-13T10:10:09.245Z,13.02
2023-03-13T10:11:09.273Z,13.02
2023-03-13T10:12:09.192Z,13.03
2023-03-13T10:13:09.185Z,13.02
2023-03-13T10:14:09.355Z,13.01
2023-03-13T10:15:09.221Z,13.02
2023-03-13T10:16:09.211Z,13.02
2023-03-13T10:17:09.129Z,13.03
2023-03-13T10:18:09.121Z,13.03
2023-03-13T10:19:09.120Z,13.02
2023-03-13T10:20:09.123Z,13.02
2023-03-13T10:21:09.137Z,12.99
2023-03-13T10:22:09.121Z,12.99
2023-03-13T10:23:09.044Z,12.94
2023-03-13T10:24:09.046Z,12.91
2023-03-13T10:25:09.069Z,12.91
2023-03-13T10:26:09.006Z,12.90
2023-03-13T10:27:09.004Z,12.88
2023-03-13T10:28:08.995Z,12.88
2023-03-13T10:29:08.997Z,12.87
2023-03-13T10:30:09.007Z,12.88
2023-03-13T10:31:09.027Z,12.88
2023-03-13T10:32:08.996Z,12.88
2023-03-13T10:33:08.989Z,12.86
2023-03-13T10:34:08.939Z,12.84
2023-03-13T10:35:08.938Z,12.83
2023-03-13T10:36:09.007Z,12.84
2023-03-13T10:37:08.887Z,12.81
2023-03-13T10:38:08.922Z,12.78
2023-03-13T10:39:08.887Z,12.78
2023-03-13T10:40:08.901Z,12.76
2023-03-13T10:41:08.864Z,12.75
2023-03-13T10:42:08.818Z,12.75
2023-03-13T10:43:08.839Z,12.75
2023-03-13T10:44:08.789Z,12.78
2023-03-13T10:45:08.791Z,12.78
2023-03-13T10:46:08.804Z,12.78
2023-03-13T10:47:08.782Z,12.78
2023-03-13T10:48:08.778Z,12.76
2023-03-13T10:49:08.740Z,12.78
2023-03-13T10:50:08.756Z,12.75
2023-03-13T10:51:08.756Z,12.75
2023-03-13T10:52:08.690Z,12.76
2023-03-13T10:53:08.689Z,12.75
2023-03-13T10:54:08.650Z,12.75
2023-03-13T10:55:08.674Z,12.73
2023-03-13T10:56:08.619Z,12.75
2023-03-13T10:57:08.617Z,12.72
2023-03-13T10:58:08.579Z,12.72
2023-03-13T10:59:08.572Z,12.68
2023-03-13T11:00:08.560Z,12.69
2023-03-13T11:01:08.571Z,12.68
2023-03-13T11:02:08.566Z,12.68
2023-03-13T11:03:08.645Z,12.65
2023-03-13T11:04:08.499Z,12.62
2023-03-13T11:05:08.499Z,12.62
2023-03-13T11:06:08.495Z,12.62
2023-03-13T11:07:08.482Z,12.61
2023-03-13T11:08:08.499Z,12.61
2023-03-13T11:09:08.435Z,12.58
2023-03-13T11:10:08.422Z,12.61
2023-03-13T11:11:08.434Z,12.62
2023-03-13T11:12:08.442Z,12.63
2023-03-13T11:13:08.392Z,12.62
2023-03-13T11:14:08.371Z,12.62
2023-03-13T11:15:08.397Z,12.62
2023-03-13T11:16:08.443Z,12.62
2023-03-13T11:17:08.333Z,12.65
2023-03-13T11:18:08.321Z,12.63
2023-03-13T11:19:08.309Z,12.65
2023-03-13T11:20:08.280Z,12.63
2023-03-13T11:21:17.718Z,12.63
2023-03-13T11:22:09.282Z,12.65
2023-03-13T11:23:08.264Z,12.65
2023-03-13T11:24:08.244Z,12.65
2023-03-13T11:25:08.229Z,12.75
2023-03-13T11:26:08.219Z,12.83
2023-03-13T11:27:08.375Z,12.94
2023-03-13T11:28:08.222Z,13.08
2023-03-13T11:29:08.204Z,13.20
2023-03-13T11:30:08.158Z,13.30
2023-03-13T11:31:08.228Z,13.45
2023-03-13T11:32:08.234Z,13.55
2023-03-13T11:33:08.107Z,13.64
2023-03-13T11:34:08.127Z,13.70
2023-03-13T11:35:08.145Z,13.76
2023-03-13T11:36:08.190Z,13.83
2023-03-13T11:37:08.063Z,13.86
2023-03-13T11:38:08.167Z,13.87
2023-03-13T11:39:08.055Z,13.89
2023-03-13T11:40:08.022Z,13.93
2023-03-13T11:41:08.021Z,13.95
2023-03-13T11:42:08.013Z,13.93
2023-03-13T11:43:23.645Z,13.86
2023-03-13T11:44:08.982Z,13.78
2023-03-13T11:45:07.966Z,13.67
2023-03-13T11:46:08.122Z,13.60
2023-03-13T11:47:08.095Z,13.50
2023-03-13T11:48:07.938Z,13.45
2023-03-13T11:49:07.922Z,13.37
2023-03-13T11:50:07.896Z,13.30
2023-03-13T11:51:07.896Z,13.23
2023-03-13T11:52:07.884Z,13.17
2023-03-13T11:53:07.893Z,13.12
2023-03-13T11:54:07.845Z,13.05
2023-03-13T11:55:07.826Z,13.01
2023-03-13T11:56:07.814Z,12.94
2023-03-13T11:57:07.805Z,12.93
2023-03-13T11:58:07.812Z,12.90
2023-03-13T11:59:07.773Z,12.90
2023-03-13T12:00:07.771Z,12.86
2023-03-13T12:01:07.795Z,12.84
2023-03-13T12:02:07.798Z,12.84
2023-03-13T12:03:07.770Z,12.83
2023-03-13T12:04:07.730Z,12.81
2023-03-13T12:05:07.788Z,12.81
2023-03-13T12:06:15.859Z,12.80
2023-03-13T12:07:08.696Z,12.78
2023-03-13T12:08:07.666Z,12.76
2023-03-13T12:09:07.645Z,12.73
2023-03-13T12:10:07.625Z,12.70
2023-03-13T12:11:07.614Z,12.70
2023-03-13T12:12:07.605Z,12.69
2023-03-13T12:13:07.607Z,12.68
2023-03-13T12:14:07.790Z,12.69
2023-03-13T12:15:07.565Z,12.70
2023-03-13T12:16:07.627Z,12.70
2023-03-13T12:17:07.534Z,12.70
2023-03-13T12:18:07.571Z,12.72
2023-03-13T12:19:07.504Z,12.70
2023-03-13T12:20:07.505Z,12.69
2023-03-13T12:21:07.488Z,12.70
2023-03-13T12:22:07.488Z,12.69
2023-03-13T12:23:07.485Z,12.69
2023-03-13T12:24:07.501Z,12.70
2023-03-13T12:25:07.550Z,12.69
2023-03-13T12:26:07.450Z,12.69
2023-03-13T12:27:07.425Z,12.70
2023-03-13T12:28:07.496Z,12.72
2023-03-13T12:29:07.376Z,12.70
2023-03-13T12:30:07.366Z,12.70
2023-03-13T12:31:07.368Z,12.73
2023-03-13T12:32:07.338Z,12.72
2023-03-13T12:33:07.347Z,12.72
2023-03-13T12:34:07.380Z,12.70
2023-03-13T12:35:07.310Z,12.70
2023-03-13T12:36:07.413Z,12.69
2023-03-13T12:37:07.279Z,12.69
2023-03-13T12:38:07.368Z,12.70
2023-03-13T12:39:07.333Z,12.72
2023-03-13T12:40:07.245Z,12.72
2023-03-13T12:41:07.225Z,12.72
2023-03-13T12:42:07.224Z,12.73
2023-03-13T12:43:07.201Z,12.72
2023-03-13T12:44:09.360Z,12.70
2023-03-13T12:45:07.172Z,12.73
2023-03-13T12:46:07.340Z,12.75
2023-03-13T12:47:07.800Z,12.75
2023-03-13T12:48:07.195Z,12.76
2023-03-13T12:49:07.594Z,12.80
2023-03-13T12:50:07.605Z,12.81
2023-03-13T12:51:07.212Z,12.83
2023-03-13T12:52:07.085Z,12.87
2023-03-13T12:53:07.312Z,12.88
2023-03-13T12:54:07.158Z,12.90
2023-03-13T12:55:07.054Z,12.91
2023-03-13T12:56:07.027Z,12.93
2023-03-13T12:57:07.017Z,12.94
2023-03-13T12:58:07.012Z,12.94
2023-03-13T12:59:07.028Z,12.94
2023-03-13T13:00:07.005Z,12.94
2023-03-13T13:01:07.062Z,12.93
2023-03-13T13:02:07.081Z,12.91
2023-03-13T13:03:06.934Z,12.91
2023-03-13T13:04:06.971Z,12.91